createdAt,value
2022-11-27T00:06:07.039Z,100.00
2022-11-27T00:11:47.041Z,100.00
2022-11-27T00:17:24.034Z,100.00
2022-11-27T00:23:01.023Z,100.00
2022-11-27T00:28:39.018Z,100.00
2022-11-27T00:34:18.034Z,100.00
2022-11-27T00:39:55.015Z,100.00
2022-11-27T00:45:33.028Z,100.00
2022-11-27T00:51:14.024Z,100.00
2022-11-27T00:56:52.998Z,100.00
2022-11-27T01:02:31.069Z,100.00
2022-11-27T01:08:08.015Z,100.00
2022-11-27T01:13:47.013Z,100.00
2022-11-27T01:19:27.006Z,100.00
2022-11-27T01:25:04.028Z,100.00
2022-11-27T01:30:41.027Z,100.00
2022-11-27T01:36:21.025Z,100.00
2022-11-27T01:41:57.997Z,100.00
2022-11-27T01:48:00.997Z,100.00
2022-11-27T01:53:41.000Z,100.00
2022-11-27T01:59:18.999Z,100.00
2022-11-27T02:04:56.016Z,100.00
2022-11-27T02:10:35.012Z,100.00
2022-11-27T02:16:21.064Z,100.00
2022-11-27T02:22:04.038Z,100.00
2022-11-27T02:27:57.988Z,100.00
2022-11-27T02:33:36.984Z,100.00
2022-11-27T02:39:17.998Z,100.00
2022-11-27T02:45:00.019Z,100.00
2022-11-27T02:50:41.011Z,100.00
2022-11-27T02:56:20.998Z,100.00
2022-11-27T03:09:28.991Z,100.00
2022-11-27T03:15:06.005Z,100.00
2022-11-27T03:20:46.998Z,100.00
2022-11-27T03:26:24.976Z,100.00
2022-11-27T03:32:02.983Z,100.00
2022-11-27T03:37:33.978Z,100.00
2022-11-27T03:43:17.982Z,100.00
2022-11-27T03:48:59.984Z,100.00
2022-11-27T03:54:44.986Z,100.00
2022-11-27T04:00:24.988Z,100.00
2022-11-27T04:06:01.988Z,100.00
2022-11-27T04:11:38.970Z,100.00
2022-11-27T04:17:16.971Z,100.00
2022-11-27T04:22:53.976Z,100.00
2022-11-27T04:28:30.972Z,100.00
2022-11-27T04:34:08.976Z,100.00
2022-11-27T04:39:45.979Z,100.00
2022-11-27T04:45:23.989Z,100.00
2022-11-27T04:51:01.957Z,100.00
2022-11-27T04:56:38.959Z,100.00
2022-11-27T05:02:15.974Z,100.00
2022-11-27T05:07:54.014Z,100.00
2022-11-27T05:13:30.966Z,100.00
2022-11-27T05:19:07.961Z,100.00
2022-11-27T05:24:45.976Z,100.00
2022-11-27T05:30:23.945Z,100.00
2022-11-27T05:36:00.955Z,100.00
2022-11-27T05:41:38.960Z,100.00
2022-11-27T05:47:15.952Z,100.00
2022-11-27T05:52:52.953Z,100.00
2022-11-27T05:58:30.963Z,100.00
2022-11-27T06:04:07.961Z,100.00
2022-11-27T06:09:44.964Z,100.00
2022-11-27T06:15:23.931Z,100.00
2022-11-27T06:21:00.958Z,100.00
2022-11-27T06:26:39.937Z,100.00
2022-11-27T06:32:18.970Z,100.00
2022-11-27T06:37:55.950Z,100.00
2022-11-27T06:43:32.943Z,100.00
2022-11-27T06:49:12.941Z,100.00
2022-11-27T06:54:49.921Z,100.00
2022-11-27T07:00:27.927Z,100.00
2022-11-27T07:06:05.935Z,100.00
2022-11-27T07:11:44.935Z,100.00
2022-11-27T07:17:21.940Z,100.00
2022-11-27T07:22:59.954Z,100.00
2022-11-27T07:28:36.968Z,100.00
2022-11-27T07:34:18.431Z,100.00
2022-11-27T07:40:03.415Z,100.00
2022-11-27T07:45:41.018Z,100.00
2022-11-27T07:51:20.929Z,100.00
2022-11-27T07:56:58.878Z,100.00
2022-11-27T08:02:37.045Z,100.00
2022-11-27T08:08:14.961Z,100.00
2022-11-27T08:13:55.933Z,100.00
2022-11-27T08:19:32.902Z,100.00
2022-11-27T08:25:09.910Z,100.00
2022-11-27T08:30:47.911Z,100.00
2022-11-27T08:36:24.910Z,100.00
2022-11-27T08:42:01.929Z,100.00
2022-11-27T08:47:39.914Z,100.00
2022-11-27T08:53:16.928Z,100.00
2022-11-27T08:58:53.940Z,100.00
2022-11-27T09:04:31.972Z,100.00
2022-11-27T09:10:08.949Z,100.00
2022-11-27T09:15:45.945Z,100.00
2022-11-27T09:21:25.912Z,100.00
2022-11-27T09:26:55.915Z,100.00
2022-11-27T09:32:32.915Z,100.00
2022-11-27T09:38:10.916Z,100.00
2022-11-27T09:43:55.901Z,100.00
2022-11-27T09:49:38.893Z,100.00
2022-11-27T09:55:25.890Z,100.00
2022-11-27T10:01:03.353Z,100.00
2022-11-27T10:06:48.034Z,100.00
2022-11-27T10:12:54.005Z,100.00
2022-11-27T10:18:40.907Z,100.00
2022-11-27T10:24:27.901Z,100.00
2022-11-27T10:30:09.908Z,98.95
2022-11-27T10:35:47.875Z,96.03
2022-11-27T10:41:48.876Z,96.50
2022-11-27T10:47:33.737Z,98.06
2022-11-27T10:53:14.914Z,96.10
2022-11-27T10:58:57.885Z,94.62
2022-11-27T11:04:41.879Z,96.56
2022-11-27T11:10:36.902Z,94.60
2022-11-27T11:16:23.324Z,92.08
2022-11-27T11:22:01.890Z,89.99
2022-11-27T11:27:49.166Z,91.71
2022-11-27T13:30:46.860Z,84.43
2022-11-27T13:36:36.247Z,85.12
2022-11-27T13:42:19.855Z,86.36
2022-11-27T13:47:58.864Z,88.10
2022-11-27T13:53:44.858Z,89.85
2022-11-27T13:59:30.779Z,90.82
2022-11-27T14:05:10.884Z,90.72
2022-11-27T14:10:47.835Z,88.59
2022-11-27T14:16:38.844Z,88.67
2022-11-27T14:22:28.841Z,89.61
2022-11-27T14:28:13.855Z,88.41
2022-11-27T14:34:16.874Z,89.21
2022-11-27T14:39:55.856Z,88.64
2022-11-27T14:45:34.862Z,90.95
2022-11-27T14:51:12.864Z,90.66
2022-11-27T14:56:54.867Z,90.15
2022-11-27T15:02:39.904Z,90.27
2022-11-27T15:08:17.900Z,91.57
2022-11-27T15:13:55.853Z,90.41
2022-11-27T15:19:40.098Z,91.17
2022-11-27T15:25:18.846Z,91.31
2022-11-27T15:31:12.251Z,90.81
2022-11-27T15:36:57.686Z,91.06
2022-11-27T15:42:36.834Z,93.07
2022-11-27T15:48:17.874Z,92.34
2022-11-27T15:53:56.454Z,92.18
2022-11-27T15:59:36.124Z,93.11
2022-11-27T16:05:13.827Z,93.07
2022-11-27T16:10:53.839Z,93.83
2022-11-27T16:16:30.892Z,94.92
2022-11-27T16:22:08.839Z,97.04
2022-11-27T16:27:45.821Z,96.46
2022-11-27T19:04:21.826Z,100.00
2022-11-27T19:10:01.780Z,100.00
2022-11-27T19:15:38.776Z,100.00
2022-11-27T19:21:22.768Z,100.00
2022-11-27T19:26:59.783Z,100.00
2022-11-27T19:32:36.787Z,100.00
2022-11-27T19:38:15.809Z,100.00
2022-11-27T19:43:53.796Z,100.00
2022-11-27T19:49:32.762Z,100.00
2022-11-27T19:55:11.763Z,100.00
2022-11-27T20:00:48.812Z,100.00
2022-11-27T20:06:27.755Z,100.00
2022-11-27T20:12:05.778Z,100.00
2022-11-27T20:17:42.783Z,100.00
2022-11-27T20:23:20.782Z,100.00
2022-11-27T20:28:59.780Z,100.00
2022-11-27T20:34:36.751Z,100.00
2022-11-27T20:40:13.756Z,100.00
2022-11-27T20:45:45.786Z,100.00
2022-11-27T20:51:25.785Z,100.00
2022-11-27T20:56:57.764Z,100.00
2022-11-27T21:02:36.866Z,100.00
2022-11-27T21:08:13.757Z,100.00
2022-11-27T21:13:50.767Z,100.00
2022-11-27T21:19:31.770Z,100.00
2022-11-27T21:25:09.776Z,100.00
2022-11-27T21:30:46.758Z,100.00
2022-11-27T21:36:24.801Z,100.00
2022-11-27T21:42:02.772Z,100.00
2022-11-27T21:47:40.843Z,100.00
2022-11-27T21:53:30.147Z,100.00
2022-11-27T21:59:06.764Z,100.00
2022-11-27T22:04:44.144Z,100.00
2022-11-27T22:10:23.751Z,100.00
2022-11-27T22:16:00.767Z,100.00
2022-11-27T22:21:37.762Z,100.00
2022-11-27T22:27:15.803Z,100.00
2022-11-27T22:32:52.772Z,100.00
2022-11-27T22:38:29.751Z,100.00
2022-11-27T22:44:08.785Z,100.00
2022-11-27T22:49:45.844Z,100.00
2022-11-27T22:55:23.776Z,100.00
2022-11-27T23:01:01.767Z,100.00
2022-11-27T23:06:38.781Z,100.00
2022-11-27T23:12:15.763Z,100.00
2022-11-27T23:17:53.732Z,100.00
2022-11-27T23:23:30.729Z,100.00
2022-11-27T23:29:08.728Z,100.00
2022-11-27T23:34:46.727Z,100.00
2022-11-27T23:40:23.730Z,100.00
2022-11-27T23:46:00.792Z,100.00
2022-11-27T23:51:41.762Z,100.00
2022-11-27T23:57:18.724Z,100.00
